createdAt,value
2022-12-12T00:04:07.678Z,99791.63
2022-12-12T00:09:01.596Z,99812.16
2022-12-12T00:13:55.046Z,99822.72
2022-12-12T00:18:48.404Z,99810.78
2022-12-12T00:23:41.586Z,99813.97
2022-12-12T00:28:35.713Z,99803.16
2022-12-12T00:33:29.267Z,99810.56
2022-12-12T00:38:24.446Z,99814.16
2022-12-12T00:43:18.422Z,99788.25
2022-12-12T00:48:13.070Z,99818.63
2022-12-12T00:53:07.219Z,99816.94
2022-12-12T00:58:00.732Z,99815.69
2022-12-12T01:02:57.716Z,99821.59
2022-12-12T01:07:51.253Z,99814.31
2022-12-12T01:12:44.244Z,99825.00
2022-12-12T01:17:38.591Z,99813.88
2022-12-12T01:22:32.376Z,99821.53
2022-12-12T01:27:25.951Z,99852.72
2022-12-12T01:32:19.744Z,99866.91
2022-12-12T01:37:13.748Z,99837.69
2022-12-12T01:42:15.261Z,99870.59
2022-12-12T01:47:09.105Z,99830.72
2022-12-12T01:52:08.682Z,99861.81
2022-12-12T01:57:07.251Z,99852.81
2022-12-12T02:02:00.576Z,99862.16
2022-12-12T02:06:55.485Z,99846.16
2022-12-12T02:11:51.571Z,99871.88
2022-12-12T02:16:53.857Z,99852.28
2022-12-12T02:21:52.791Z,99881.41
2022-12-12T02:27:26.308Z,99875.47
2022-12-12T02:32:40.659Z,99875.47
2022-12-12T02:37:49.074Z,99879.06
2022-12-12T02:42:58.849Z,99878.19
2022-12-12T02:48:02.549Z,99858.88
2022-12-12T02:52:56.449Z,99873.84
2022-12-12T02:57:52.482Z,99882.84
2022-12-12T03:03:34.269Z,99889.84
2022-12-12T03:08:57.658Z,99896.91
2022-12-12T03:13:53.370Z,99889.09
2022-12-12T03:19:13.190Z,99892.59
2022-12-12T03:24:29.042Z,99876.72
2022-12-12T03:29:29.150Z,99865.19
2022-12-12T03:34:30.781Z,99886.66
2022-12-12T03:39:25.911Z,99885.50
2022-12-12T03:44:34.484Z,99907.81
2022-12-12T03:49:50.520Z,99879.78
2022-12-12T03:54:51.898Z,99913.34
2022-12-12T04:00:07.866Z,99877.03
2022-12-12T04:05:08.587Z,99923.91
2022-12-12T04:10:20.827Z,99897.66
2022-12-12T04:15:47.523Z,99916.06
2022-12-12T04:21:13.444Z,99910.91
2022-12-12T04:26:40.605Z,99887.09
2022-12-12T04:31:38.635Z,99896.72
2022-12-12T04:36:34.863Z,99914.50
2022-12-12T04:41:32.336Z,99920.63
2022-12-12T04:46:28.942Z,99895.22
2022-12-12T04:51:27.906Z,99919.97
2022-12-12T04:56:29.121Z,99927.09
2022-12-12T05:01:24.815Z,99932.25
2022-12-12T05:06:22.906Z,99917.31
2022-12-12T05:11:19.327Z,99942.19
2022-12-12T05:16:19.631Z,99933.19
2022-12-12T05:21:13.341Z,99967.88
2022-12-12T05:26:30.085Z,99936.66
2022-12-12T05:31:23.519Z,99972.34
2022-12-12T05:36:17.473Z,99945.03
2022-12-12T05:41:11.854Z,99970.66
2022-12-12T05:46:06.886Z,100004.09
2022-12-12T05:51:04.515Z,99974.34
2022-12-12T05:55:57.862Z,99997.22
2022-12-12T06:00:52.450Z,99995.59
2022-12-12T06:05:47.014Z,99997.50
2022-12-12T06:10:40.938Z,100003.75
2022-12-12T06:15:34.946Z,99997.19
2022-12-12T06:20:30.656Z,100003.31
2022-12-12T06:25:23.497Z,100017.63
2022-12-12T06:30:17.664Z,100024.03
2022-12-12T06:35:12.091Z,100027.84
2022-12-12T06:40:07.739Z,100036.44
2022-12-12T06:45:01.040Z,100029.19
2022-12-12T06:49:55.232Z,100010.97
2022-12-12T06:54:49.251Z,100051.00
2022-12-12T06:59:43.408Z,100045.91
2022-12-12T07:04:37.526Z,100065.81
2022-12-12T07:09:31.568Z,100049.16
2022-12-12T07:14:26.128Z,100064.06
2022-12-12T07:19:20.065Z,100070.28
2022-12-12T07:24:15.934Z,100089.16
2022-12-12T07:29:10.044Z,100082.75
2022-12-12T07:34:03.879Z,100101.31
2022-12-12T07:38:57.365Z,100082.75
2022-12-12T07:43:53.042Z,100099.72
2022-12-12T07:48:46.323Z,100086.47
2022-12-12T07:53:40.118Z,100109.34
2022-12-12T07:58:34.179Z,100104.25
2022-12-12T08:03:27.435Z,100106.19
2022-12-12T08:08:20.747Z,100107.53
2022-12-12T08:13:14.203Z,100128.28
2022-12-12T08:18:09.223Z,100138.41
2022-12-12T08:23:03.725Z,100140.38
2022-12-12T08:27:57.079Z,100178.28
2022-12-12T08:32:50.575Z,100165.19
2022-12-12T08:37:44.545Z,100160.72
2022-12-12T08:42:36.689Z,100174.09
2022-12-12T08:47:30.173Z,100174.09
2022-12-12T08:52:23.153Z,100186.75
2022-12-12T08:57:18.430Z,100215.69
2022-12-12T09:02:13.592Z,100203.34
2022-12-12T09:07:08.780Z,100210.19
2022-12-12T09:12:02.488Z,100212.28
2022-12-12T09:16:55.194Z,100193.41
2022-12-12T09:21:48.564Z,100231.34
2022-12-12T09:26:42.056Z,100220.09
2022-12-12T09:31:36.331Z,100216.06
2022-12-12T09:36:29.630Z,100190.19
2022-12-12T09:41:31.087Z,100188.50
2022-12-12T09:46:33.126Z,100189.44
2022-12-12T09:51:26.088Z,100217.66
2022-12-12T09:56:37.737Z,100211.44
2022-12-12T10:01:32.879Z,100207.97
2022-12-12T10:06:39.139Z,100229.94
2022-12-12T10:11:52.117Z,100202.47
2022-12-12T10:16:50.072Z,100211.91
2022-12-12T10:21:48.742Z,100221.91
2022-12-12T10:26:45.814Z,100199.81
2022-12-12T10:31:44.993Z,100196.53
2022-12-12T10:36:43.690Z,100204.16
2022-12-12T10:41:38.755Z,100201.53
2022-12-12T10:46:50.881Z,100170.56
2022-12-12T10:51:47.018Z,100182.47
2022-12-12T10:57:06.031Z,100181.25
2022-12-12T11:02:10.136Z,100161.78
2022-12-12T11:07:04.447Z,100171.50
2022-12-12T11:12:09.143Z,100160.00
2022-12-12T11:17:03.039Z,100160.28
2022-12-12T11:22:03.083Z,100152.25
2022-12-12T11:27:06.093Z,100155.75
2022-12-12T11:32:00.587Z,100157.25
2022-12-12T11:36:54.648Z,100152.19
2022-12-12T11:42:16.193Z,100138.66
2022-12-12T11:47:39.156Z,100160.00
2022-12-12T11:52:35.378Z,100139.25
2022-12-12T11:57:41.845Z,100135.91
2022-12-12T12:02:55.756Z,100153.66
2022-12-12T12:07:56.482Z,100179.34
2022-12-12T12:13:12.390Z,100166.03
2022-12-12T12:18:05.226Z,100153.75
2022-12-12T12:23:25.942Z,100144.97
2022-12-12T12:28:41.041Z,100117.53
2022-12-12T12:34:00.027Z,100133.56
2022-12-12T12:39:05.289Z,100118.19
2022-12-12T12:44:19.033Z,100144.91
2022-12-12T12:49:27.142Z,100109.72
2022-12-12T12:54:22.855Z,100120.25
2022-12-12T12:59:25.493Z,100138.75
2022-12-12T13:04:35.325Z,100122.06
2022-12-12T13:10:03.147Z,100130.75
2022-12-12T13:15:03.246Z,100096.22
2022-12-12T13:19:57.943Z,100108.19
2022-12-12T13:25:26.558Z,100117.84
2022-12-12T13:30:43.017Z,100126.50
2022-12-12T13:35:42.976Z,100129.56
2022-12-12T13:40:44.374Z,100143.38
2022-12-12T13:45:41.136Z,100144.84
2022-12-12T13:50:34.633Z,100158.09
2022-12-12T13:55:28.146Z,100118.31
2022-12-12T14:00:21.156Z,100140.44
2022-12-12T14:05:16.188Z,100120.59
2022-12-12T14:10:34.474Z,100117.19
2022-12-12T14:15:47.064Z,100100.91
2022-12-12T14:20:43.231Z,100138.97
2022-12-12T14:25:40.307Z,100130.78
2022-12-12T14:30:54.184Z,100126.06
2022-12-12T14:35:55.733Z,100119.38
2022-12-12T14:40:53.755Z,100137.03
2022-12-12T14:45:53.853Z,100136.56
2022-12-12T14:50:55.801Z,100150.88
2022-12-12T14:55:58.033Z,100127.97
2022-12-12T15:00:57.383Z,100146.03
2022-12-12T15:06:11.744Z,100137.97
2022-12-12T15:11:05.943Z,100145.50
2022-12-12T15:15:59.161Z,100139.00
2022-12-12T15:20:58.071Z,100139.94
2022-12-12T15:25:57.050Z,100170.25
2022-12-12T15:30:58.476Z,100166.69
2022-12-12T15:36:01.917Z,100163.09
2022-12-12T15:40:58.953Z,100163.88
2022-12-12T15:46:01.133Z,100163.59
2022-12-12T15:50:59.923Z,100155.66
2022-12-12T15:56:08.305Z,100165.09
2022-12-12T16:01:26.253Z,100180.75
2022-12-12T16:06:19.757Z,100174.72
2022-12-12T16:11:39.949Z,100174.72
2022-12-12T16:16:41.609Z,100172.56
2022-12-12T16:21:43.091Z,100150.38
2022-12-12T16:26:37.351Z,100173.50
2022-12-12T16:31:31.338Z,100187.47
2022-12-12T16:36:25.602Z,100190.88
2022-12-12T16:41:19.787Z,100180.31
2022-12-12T16:46:34.107Z,100202.09
2022-12-12T16:51:28.883Z,100197.19
2022-12-12T16:56:22.295Z,100213.69
2022-12-12T17:01:17.350Z,100211.44
2022-12-12T17:06:10.941Z,100215.88
2022-12-12T17:11:10.015Z,100214.00
2022-12-12T17:16:04.359Z,100201.44
2022-12-12T17:20:58.457Z,100190.94
2022-12-12T17:25:57.251Z,100196.06
2022-12-12T17:30:55.343Z,100195.22
2022-12-12T17:36:05.096Z,100200.03
2022-12-12T17:40:59.080Z,100198.06
2022-12-12T17:46:00.131Z,100215.06
2022-12-12T17:50:59.014Z,100228.34
2022-12-12T17:56:00.915Z,100218.16
2022-12-12T18:00:55.578Z,100246.56
2022-12-12T18:05:49.591Z,100247.31
2022-12-12T18:10:43.756Z,100232.34
2022-12-12T18:15:37.822Z,100223.41
2022-12-12T18:20:31.532Z,100241.03
2022-12-12T18:25:25.306Z,100223.84
2022-12-12T18:30:20.582Z,100240.97
2022-12-12T18:35:13.465Z,100241.69
2022-12-12T18:40:10.352Z,100222.72
2022-12-12T18:45:04.863Z,100241.44
2022-12-12T18:49:59.146Z,100214.88
2022-12-12T18:54:53.131Z,100207.97
2022-12-12T18:59:46.854Z,100237.09
2022-12-12T19:04:40.264Z,100206.56
2022-12-12T19:09:33.526Z,100231.47
2022-12-12T19:14:35.692Z,100225.00
2022-12-12T19:19:33.934Z,100214.63
2022-12-12T19:24:27.376Z,100258.63
2022-12-12T19:29:21.575Z,100255.69
2022-12-12T19:34:16.828Z,100257.69
2022-12-12T19:39:11.970Z,100261.75
2022-12-12T19:44:08.822Z,100261.66
2022-12-12T19:49:10.029Z,100251.84
2022-12-12T19:54:05.720Z,100256.75
2022-12-12T19:58:59.658Z,100244.25
2022-12-12T20:04:17.814Z,100247.38
2022-12-12T20:09:12.220Z,100231.91
2022-12-12T20:14:06.360Z,100247.69
2022-12-12T20:19:07.192Z,100246.75
2022-12-12T20:24:01.043Z,100239.75
2022-12-12T20:28:57.912Z,100251.94
2022-12-12T20:33:55.092Z,100235.25
2022-12-12T20:38:49.416Z,100223.59
2022-12-12T20:43:42.782Z,100249.28
2022-12-12T20:48:37.479Z,100247.41
2022-12-12T20:53:36.374Z,100251.75
2022-12-12T20:58:30.555Z,100256.09
2022-12-12T21:03:24.083Z,100241.66
2022-12-12T21:08:20.800Z,100237.19
2022-12-12T21:13:15.447Z,100235.59
2022-12-12T21:18:08.025Z,100242.66
2022-12-12T21:23:02.388Z,100247.13
2022-12-12T21:27:55.910Z,100231.84
2022-12-12T21:32:49.355Z,100223.31
2022-12-12T21:37:42.697Z,100240.31
2022-12-12T21:42:36.233Z,100218.97
2022-12-12T21:47:29.700Z,100201.25
2022-12-12T21:52:22.879Z,100209.44
2022-12-12T21:57:22.000Z,100228.97
2022-12-12T22:02:18.470Z,100232.66
2022-12-12T22:07:12.568Z,100253.06
2022-12-12T22:12:06.454Z,100260.25
2022-12-12T22:17:03.884Z,100253.72
2022-12-12T22:21:57.360Z,100285.53
2022-12-12T22:26:50.806Z,100277.13
2022-12-12T22:31:45.806Z,100285.75
2022-12-12T22:36:40.331Z,100289.13
2022-12-12T22:41:33.816Z,100289.31
2022-12-12T22:46:28.493Z,100290.25
2022-12-12T22:51:24.230Z,100297.16
2022-12-12T22:56:18.015Z,100292.69
2022-12-12T23:01:17.418Z,100283.16
2022-12-12T23:06:24.019Z,100289.31
2022-12-12T23:11:17.909Z,100292.53
2022-12-12T23:16:31.987Z,100294.41
2022-12-12T23:21:26.410Z,100259.56
2022-12-12T23:26:22.570Z,100280.47
2022-12-12T23:31:30.879Z,100278.66
2022-12-12T23:36:25.737Z,100276.94
2022-12-12T23:41:19.038Z,100264.13
2022-12-12T23:46:29.015Z,100257.41
2022-12-12T23:51:28.423Z,100247.94
2022-12-12T23:56:22.870Z,100268.91
